createdAt,value
2018-02-20T00:01:30.494Z,83.50
2018-02-20T00:03:59.236Z,83.60
2018-02-20T00:06:26.770Z,83.60
2018-02-20T00:08:54.203Z,83.00
2018-02-20T00:11:22.410Z,83.30
2018-02-20T00:13:49.837Z,83.20
2018-02-20T00:16:18.047Z,83.30
2018-02-20T00:18:45.490Z,83.30
2018-02-20T00:21:12.929Z,83.40
2018-02-20T00:23:41.124Z,84.10
2018-02-20T00:26:08.568Z,84.00
2018-02-20T00:28:36.774Z,84.20
2018-02-20T00:31:04.827Z,84.10
2018-02-20T00:33:32.311Z,83.70
2018-02-20T00:35:59.741Z,83.30
2018-02-20T00:38:27.167Z,83.40
2018-02-20T00:40:54.608Z,83.50
2018-02-20T00:43:22.034Z,83.30
2018-02-20T00:45:49.479Z,83.30
2018-02-20T00:48:16.888Z,83.30
2018-02-20T00:50:44.329Z,83.40
2018-02-20T00:53:12.517Z,83.40
2018-02-20T00:55:39.959Z,83.40
2018-02-20T00:58:07.387Z,83.40
2018-02-20T01:00:34.809Z,83.40
2018-02-20T01:03:03.013Z,83.70
2018-02-20T01:05:30.445Z,83.70
2018-02-20T01:07:58.640Z,83.70
2018-02-20T01:10:26.078Z,83.60
2018-02-20T01:12:54.264Z,84.30
2018-02-20T01:15:21.701Z,84.30
2018-02-20T01:17:49.143Z,84.20
2018-02-20T01:20:16.585Z,84.30
2018-02-20T01:22:44.029Z,84.50
2018-02-20T01:25:11.471Z,84.60
2018-02-20T01:27:38.917Z,84.60
2018-02-20T01:30:06.336Z,85.00
2018-02-20T01:32:33.757Z,85.10
2018-02-20T01:35:01.200Z,85.40
2018-02-20T01:37:28.641Z,85.30
2018-02-20T01:39:56.088Z,85.40
2018-02-20T01:42:23.529Z,85.00
2018-02-20T01:44:51.729Z,85.60
2018-02-20T01:47:19.158Z,85.60
2018-02-20T01:49:47.917Z,86.30
2018-02-20T01:52:15.346Z,85.30
2018-02-20T01:54:42.793Z,85.30
2018-02-20T01:57:10.212Z,85.40
2018-02-20T01:59:37.673Z,85.30
2018-02-20T02:02:05.509Z,85.50
2018-02-20T02:04:32.952Z,85.90
2018-02-20T02:07:00.384Z,85.90
2018-02-20T02:09:27.825Z,86.20
2018-02-20T02:11:56.031Z,86.50
2018-02-20T02:14:23.469Z,86.40
2018-02-20T02:16:50.916Z,86.30
2018-02-20T02:19:19.107Z,87.90
2018-02-20T02:21:46.532Z,87.80
2018-02-20T02:24:14.737Z,87.50
2018-02-20T02:26:42.179Z,87.50
2018-02-20T02:29:10.384Z,87.90
2018-02-20T02:31:37.823Z,87.90
2018-02-20T02:34:05.579Z,87.40
2018-02-20T02:36:33.774Z,87.30
2018-02-20T02:39:01.204Z,87.20
2018-02-20T02:41:29.406Z,87.00
2018-02-20T02:43:56.830Z,86.90
2018-02-20T02:46:25.034Z,86.60
2018-02-20T02:48:52.470Z,86.60
2018-02-20T02:51:20.666Z,87.00
2018-02-20T02:53:48.102Z,86.90
2018-02-20T02:56:16.314Z,86.40
2018-02-20T02:58:43.752Z,86.40
2018-02-20T03:01:11.953Z,86.70
2018-02-20T03:03:39.389Z,86.70
2018-02-20T03:06:06.869Z,86.50
2018-02-20T03:08:34.294Z,86.10
2018-02-20T03:11:01.774Z,85.90
2018-02-20T03:13:29.180Z,85.80
2018-02-20T03:15:56.628Z,85.90
2018-02-20T03:18:24.066Z,85.70
2018-02-20T03:20:51.603Z,85.60
2018-02-20T03:23:19.069Z,86.10
2018-02-20T03:25:46.505Z,86.40
2018-02-20T03:28:13.933Z,86.50
2018-02-20T03:30:42.139Z,87.40
2018-02-20T03:33:09.571Z,86.70
2018-02-20T03:35:37.769Z,87.10
2018-02-20T03:38:05.881Z,87.10
2018-02-20T03:40:33.328Z,87.30
2018-02-20T03:43:01.521Z,86.50
2018-02-20T03:45:30.469Z,86.40
2018-02-20T03:47:57.897Z,86.30
2018-02-20T03:50:26.105Z,86.80
2018-02-20T03:52:53.537Z,86.80
2018-02-20T03:55:21.729Z,86.50
2018-02-20T03:57:49.166Z,86.40
2018-02-20T04:00:17.381Z,86.50
2018-02-20T04:02:44.813Z,86.50
2018-02-20T04:05:12.253Z,86.60
2018-02-20T04:07:40.453Z,86.60
2018-02-20T04:10:07.885Z,86.60
2018-02-20T04:12:36.109Z,86.60
2018-02-20T04:15:03.530Z,86.60
2018-02-20T04:17:30.974Z,86.70
2018-02-20T04:19:58.396Z,86.70
2018-02-20T04:22:25.840Z,86.90
2018-02-20T04:24:53.262Z,86.90
2018-02-20T04:27:21.467Z,86.70
2018-02-20T04:29:48.921Z,86.70
2018-02-20T04:32:16.328Z,86.70
2018-02-20T04:34:44.525Z,87.30
2018-02-20T04:37:11.973Z,87.20
2018-02-20T04:39:40.183Z,87.50
2018-02-20T04:42:07.621Z,87.40
2018-02-20T04:44:35.037Z,87.40
2018-02-20T04:47:02.464Z,87.10
2018-02-20T04:49:29.915Z,87.30
2018-02-20T04:51:57.357Z,87.30
2018-02-20T04:54:24.856Z,87.20
2018-02-20T04:56:52.276Z,87.00
2018-02-20T04:59:19.680Z,86.90
2018-02-20T05:01:47.145Z,86.70
2018-02-20T05:04:14.545Z,86.80
2018-02-20T05:06:41.976Z,87.50
2018-02-20T05:09:10.164Z,86.90
2018-02-20T05:11:37.595Z,86.80
2018-02-20T05:14:06.785Z,87.40
2018-02-20T05:16:34.204Z,86.80
2018-02-20T05:19:01.634Z,87.00
2018-02-20T05:21:29.872Z,86.90
2018-02-20T05:23:57.323Z,87.30
2018-02-20T05:26:24.987Z,87.00
2018-02-20T05:28:52.392Z,87.40
2018-02-20T05:31:19.820Z,87.10
2018-02-20T05:33:48.019Z,87.80
2018-02-20T05:36:15.956Z,86.90
2018-02-20T05:38:43.395Z,87.00
2018-02-20T05:41:10.819Z,86.90
2018-02-20T05:43:38.253Z,86.80
2018-02-20T05:46:06.282Z,86.90
2018-02-20T05:48:33.720Z,86.50
2018-02-20T05:51:01.142Z,86.70
2018-02-20T05:53:28.587Z,87.60
2018-02-20T05:55:56.764Z,86.70
2018-02-20T05:58:24.972Z,86.60
2018-02-20T06:00:52.404Z,86.60
2018-02-20T06:03:19.840Z,88.10
2018-02-20T06:05:48.028Z,86.90
2018-02-20T06:08:16.222Z,86.90
2018-02-20T06:10:43.644Z,86.90
2018-02-20T06:13:11.085Z,87.20
2018-02-20T06:15:38.537Z,86.80
2018-02-20T06:18:06.441Z,86.80
2018-02-20T06:20:34.631Z,86.70
2018-02-20T06:23:02.128Z,86.70
2018-02-20T06:25:29.549Z,86.70
2018-02-20T06:27:56.989Z,87.00
2018-02-20T06:30:25.188Z,87.20
2018-02-20T06:32:52.609Z,87.10
2018-02-20T06:35:20.792Z,88.60
2018-02-20T06:37:48.994Z,87.70
2018-02-20T06:40:16.421Z,87.50
2018-02-20T06:42:44.616Z,87.60
2018-02-20T06:45:12.042Z,87.50
2018-02-20T06:47:39.468Z,87.50
2018-02-20T06:50:06.901Z,88.90
2018-02-20T06:52:34.332Z,88.70
2018-02-20T06:55:03.165Z,88.10
2018-02-20T06:57:30.594Z,88.10
2018-02-20T06:59:58.025Z,88.10
2018-02-20T07:02:26.230Z,87.80
2018-02-20T07:04:53.654Z,87.70
2018-02-20T07:07:21.097Z,88.00
2018-02-20T07:09:48.540Z,87.90
2018-02-20T07:12:15.949Z,87.60
2018-02-20T07:14:43.409Z,87.40
2018-02-20T07:17:10.805Z,87.90
2018-02-20T07:19:38.244Z,88.20
2018-02-20T07:22:07.345Z,87.60
2018-02-20T07:24:34.776Z,87.50
2018-02-20T07:27:02.222Z,87.40
2018-02-20T07:29:30.437Z,88.20
2018-02-20T07:31:57.860Z,88.20
2018-02-20T07:34:25.301Z,88.70
2018-02-20T07:36:54.280Z,89.30
2018-02-20T07:39:21.698Z,89.20
2018-02-20T07:41:49.117Z,89.50
2018-02-20T07:44:17.326Z,89.70
2018-02-20T07:46:44.750Z,89.60
2018-02-20T07:49:12.969Z,89.30
2018-02-20T07:51:40.402Z,89.30
2018-02-20T07:54:07.830Z,89.10
2018-02-20T07:56:36.030Z,88.80
2018-02-20T07:59:03.449Z,89.30
2018-02-20T08:01:30.882Z,89.50
2018-02-20T08:03:58.319Z,90.00
2018-02-20T08:06:25.775Z,88.30
2018-02-20T08:08:53.202Z,87.80
2018-02-20T08:11:21.391Z,86.10
2018-02-20T08:13:48.826Z,86.10
2018-02-20T08:16:17.053Z,77.00
2018-02-20T08:18:44.480Z,76.90
2018-02-20T08:21:11.918Z,73.70
2018-02-20T08:23:40.111Z,68.40
2018-02-20T08:26:07.566Z,68.40
2018-02-20T08:28:35.755Z,62.00
2018-02-20T08:31:03.181Z,61.90
2018-02-20T08:33:31.381Z,58.80
2018-02-20T08:35:59.577Z,58.60
2018-02-20T08:38:27.008Z,58.50
2018-02-20T08:40:54.444Z,59.10
2018-02-20T08:43:22.677Z,58.80
2018-02-20T08:45:50.089Z,58.80
2018-02-20T08:48:17.607Z,58.40
2018-02-20T08:50:45.017Z,58.70
2018-02-20T08:53:12.466Z,57.00
2018-02-20T08:55:39.901Z,55.50
2018-02-20T08:58:07.340Z,53.80
2018-02-20T09:00:34.772Z,52.90
2018-02-20T09:03:02.218Z,51.00
2018-02-20T09:05:29.648Z,49.50
2018-02-20T09:07:57.097Z,47.50
2018-02-20T09:10:24.517Z,47.00
2018-02-20T09:12:51.974Z,45.70
2018-02-20T09:15:19.457Z,42.20
2018-02-20T09:17:46.828Z,42.50
2018-02-20T09:20:15.044Z,40.80
2018-02-20T09:22:42.480Z,40.80
2018-02-20T09:25:09.925Z,39.40
2018-02-20T09:27:38.122Z,36.90
2018-02-20T09:30:05.548Z,36.80
2018-02-20T09:32:33.760Z,35.50
2018-02-20T09:35:01.194Z,35.40
2018-02-20T09:37:28.632Z,35.90
2018-02-20T09:39:56.850Z,35.80
2018-02-20T09:42:24.284Z,35.80
2018-02-20T09:44:51.716Z,35.50
2018-02-20T09:47:19.929Z,34.20
2018-02-20T09:49:47.358Z,34.20
2018-02-20T09:52:15.552Z,31.10
2018-02-20T09:54:42.989Z,31.00
2018-02-20T09:57:11.181Z,32.30
2018-02-20T09:59:38.622Z,32.30
2018-02-20T10:02:07.754Z,31.70
2018-02-20T10:04:35.176Z,31.70
2018-02-20T10:07:03.376Z,32.80
2018-02-20T10:09:30.816Z,32.70
2018-02-20T10:11:59.013Z,32.20
2018-02-20T10:14:26.450Z,32.20
2018-02-20T10:16:54.652Z,32.30
2018-02-20T10:19:22.096Z,32.30
2018-02-20T10:21:49.526Z,32.60
2018-02-20T10:24:17.734Z,31.40
2018-02-20T10:26:45.161Z,31.40
2018-02-20T10:29:13.357Z,30.80
2018-02-20T10:31:40.809Z,30.80
2018-02-20T10:34:08.258Z,31.20
2018-02-20T10:36:36.454Z,31.90
2018-02-20T10:39:03.881Z,31.90
2018-02-20T10:41:32.097Z,31.50
2018-02-20T10:43:59.544Z,31.40
2018-02-20T10:46:26.978Z,30.40
2018-02-20T10:48:55.169Z,31.70
2018-02-20T10:51:22.601Z,31.60
2018-02-20T10:53:50.804Z,31.90
2018-02-20T10:56:18.276Z,31.90
2018-02-20T10:58:45.689Z,31.10
2018-02-20T11:01:13.902Z,29.80
2018-02-20T11:03:41.331Z,29.70
2018-02-20T11:06:09.527Z,29.50
2018-02-20T11:08:36.956Z,29.40
2018-02-20T11:11:05.156Z,29.10
2018-02-20T11:13:32.589Z,29.10
2018-02-20T11:16:00.802Z,29.30
2018-02-20T11:18:28.270Z,29.30
2018-02-20T11:20:55.719Z,28.90
2018-02-20T11:23:23.169Z,29.30
2018-02-20T11:25:50.597Z,29.00
2018-02-20T11:28:18.797Z,29.10
2018-02-20T11:30:46.242Z,29.00
2018-02-20T11:33:14.771Z,27.90
2018-02-20T11:35:42.204Z,27.90
2018-02-20T11:38:09.642Z,28.30
2018-02-20T11:40:37.084Z,27.80
2018-02-20T11:43:05.274Z,26.30
2018-02-20T11:45:32.709Z,26.20
2018-02-20T11:48:00.906Z,26.40
2018-02-20T11:50:28.354Z,26.40
2018-02-20T11:52:56.549Z,26.70
2018-02-20T11:55:23.988Z,26.70
2018-02-20T11:57:52.193Z,27.00
2018-02-20T12:00:19.656Z,27.00
2018-02-20T12:02:47.165Z,27.20
2018-02-20T12:05:14.589Z,27.00
2018-02-20T12:07:42.045Z,27.10
2018-02-20T12:10:09.473Z,27.30
2018-02-20T12:12:36.904Z,27.70
2018-02-20T12:15:05.148Z,26.80
2018-02-20T12:17:32.569Z,26.70
2018-02-20T12:20:00.000Z,26.60
2018-02-20T12:22:28.210Z,26.80
2018-02-20T12:24:55.649Z,26.70
2018-02-20T12:27:23.083Z,26.50
2018-02-20T12:29:51.276Z,25.50
2018-02-20T12:32:18.713Z,25.40
2018-02-20T12:34:46.905Z,26.10
2018-02-20T12:37:14.335Z,26.10
2018-02-20T12:39:41.820Z,25.60
2018-02-20T12:42:10.039Z,26.80
2018-02-20T12:44:37.470Z,26.80
2018-02-20T12:47:04.897Z,27.00
2018-02-20T12:49:33.107Z,26.40
2018-02-20T12:52:00.555Z,26.30
2018-02-20T12:54:28.001Z,27.00
2018-02-20T12:56:55.441Z,27.20
2018-02-20T12:59:23.637Z,26.80
2018-02-20T13:01:52.081Z,26.80
2018-02-20T13:04:19.522Z,27.10
2018-02-20T13:06:46.978Z,26.40
2018-02-20T13:09:14.421Z,27.30
2018-02-20T13:11:42.641Z,27.50
2018-02-20T13:14:10.833Z,27.80
2018-02-20T13:16:38.268Z,27.80
2018-02-20T13:19:05.706Z,27.70
2018-02-20T13:21:33.157Z,27.40
2018-02-20T13:24:00.589Z,27.80
2018-02-20T13:26:28.041Z,28.40
2018-02-20T13:28:55.472Z,27.90
2018-02-20T13:31:23.679Z,28.50
2018-02-20T13:33:51.120Z,28.50
2018-02-20T13:36:18.554Z,28.70
2018-02-20T13:38:46.740Z,28.10
2018-02-20T13:41:14.195Z,28.00
2018-02-20T13:43:42.385Z,28.90
2018-02-20T13:46:09.820Z,29.30
2018-02-20T13:48:38.040Z,28.60
2018-02-20T13:51:05.498Z,28.60
2018-02-20T13:53:32.923Z,28.40
2018-02-20T13:56:00.352Z,29.00
2018-02-20T13:58:27.801Z,29.00
2018-02-20T14:00:55.245Z,29.40
2018-02-20T14:03:22.690Z,29.20
2018-02-20T14:05:50.177Z,28.40
2018-02-20T14:08:17.605Z,28.20
2018-02-20T14:10:45.068Z,28.20
2018-02-20T14:13:12.505Z,28.60
2018-02-20T14:15:39.945Z,29.00
2018-02-20T14:18:08.100Z,28.90
2018-02-20T14:20:36.293Z,29.10
2018-02-20T14:23:03.737Z,29.10
2018-02-20T14:25:31.940Z,30.10
2018-02-20T14:27:59.364Z,30.00
2018-02-20T14:30:27.576Z,30.40
2018-02-20T14:32:55.022Z,30.30
2018-02-20T14:35:22.477Z,30.50
2018-02-20T14:37:49.919Z,30.60
2018-02-20T14:40:18.129Z,31.80
2018-02-20T14:42:45.569Z,31.10
2018-02-20T14:45:13.006Z,31.60
2018-02-20T14:47:41.316Z,32.30
2018-02-20T14:50:10.297Z,32.80
2018-02-20T14:52:37.721Z,32.70
2018-02-20T14:55:05.926Z,33.50
2018-02-20T14:57:33.383Z,33.40
2018-02-20T15:00:00.805Z,34.00
2018-02-20T15:02:28.256Z,34.90
2018-02-20T15:04:55.686Z,36.20
2018-02-20T15:07:23.125Z,37.10
2018-02-20T15:09:50.553Z,37.60
2018-02-20T15:12:18.768Z,37.80
2018-02-20T15:14:46.200Z,37.70
2018-02-20T15:17:13.632Z,38.80
2018-02-20T15:19:41.846Z,38.20
2018-02-20T15:22:09.281Z,38.20
2018-02-20T15:24:36.717Z,38.80
2018-02-20T15:27:04.192Z,38.80
2018-02-20T15:29:32.373Z,39.00
2018-02-20T15:31:59.808Z,39.00
2018-02-20T15:34:28.018Z,39.00
2018-02-20T15:36:55.463Z,39.00
2018-02-20T15:39:23.702Z,37.80
2018-02-20T15:41:51.126Z,37.70
2018-02-20T15:44:18.556Z,37.90
2018-02-20T15:46:45.989Z,38.00
2018-02-20T15:49:14.192Z,38.50
2018-02-20T15:51:41.614Z,38.20
2018-02-20T15:54:09.052Z,38.80
2018-02-20T15:56:36.515Z,39.10
2018-02-20T15:59:03.915Z,39.40
2018-02-20T16:01:31.350Z,40.10
2018-02-20T16:03:58.800Z,40.80
2018-02-20T16:06:26.540Z,41.40
2018-02-20T16:08:53.975Z,42.20
2018-02-20T16:11:21.401Z,42.60
2018-02-20T16:13:50.204Z,43.80
2018-02-20T16:16:19.302Z,43.80
2018-02-20T16:18:46.729Z,43.80
2018-02-20T16:21:14.979Z,44.70
2018-02-20T16:23:42.427Z,44.60
2018-02-20T16:26:09.848Z,45.60
2018-02-20T16:28:37.296Z,45.70
2018-02-20T16:31:05.506Z,45.70
2018-02-20T16:33:32.953Z,45.70
2018-02-20T16:36:00.393Z,45.60
2018-02-20T16:38:27.842Z,45.70
2018-02-20T16:40:56.033Z,46.20
2018-02-20T16:43:23.485Z,46.20
2018-02-20T16:45:50.921Z,46.90
2018-02-20T16:48:19.135Z,48.00
2018-02-20T16:50:46.575Z,48.00
2018-02-20T16:53:15.134Z,49.00
2018-02-20T16:55:43.334Z,49.30
2018-02-20T16:58:10.790Z,48.60
2018-02-20T17:00:38.222Z,48.60
2018-02-20T17:03:05.666Z,48.90
2018-02-20T17:05:33.089Z,49.70
2018-02-20T17:08:00.534Z,49.80
2018-02-20T17:10:28.153Z,51.10
2018-02-20T17:12:56.388Z,51.80
2018-02-20T17:15:23.833Z,51.70
2018-02-20T17:17:51.270Z,50.70
2018-02-20T17:20:18.756Z,50.70
2018-02-20T17:22:46.188Z,51.60
2018-02-20T17:25:14.378Z,52.80
2018-02-20T17:27:41.799Z,52.10
2018-02-20T17:30:09.993Z,52.60
2018-02-20T17:32:37.416Z,52.50
2018-02-20T17:35:04.850Z,53.30
2018-02-20T17:37:32.281Z,53.50
2018-02-20T17:39:59.733Z,54.20
2018-02-20T17:42:27.190Z,54.00
2018-02-20T17:44:54.603Z,54.50
2018-02-20T17:47:22.036Z,54.60
2018-02-20T17:49:49.495Z,55.00
2018-02-20T17:52:17.705Z,55.10
2018-02-20T17:54:45.903Z,54.90
2018-02-20T17:57:13.356Z,54.80
2018-02-20T17:59:41.557Z,55.60
2018-02-20T18:02:09.254Z,55.60
2018-02-20T18:04:36.682Z,55.90
2018-02-20T18:07:04.134Z,55.60
2018-02-20T18:09:31.568Z,55.70
2018-02-20T18:11:58.986Z,56.00
2018-02-20T18:14:26.447Z,56.20
2018-02-20T18:16:53.871Z,56.20
2018-02-20T18:19:21.303Z,56.20
2018-02-20T18:21:48.728Z,56.30
2018-02-20T18:24:16.945Z,56.30
2018-02-20T18:26:44.377Z,56.30
2018-02-20T18:29:12.578Z,56.60
2018-02-20T18:31:40.000Z,56.60
2018-02-20T18:34:09.111Z,56.60
2018-02-20T18:36:36.552Z,56.60
2018-02-20T18:39:04.763Z,56.80
2018-02-20T18:41:32.197Z,56.80
2018-02-20T18:43:59.643Z,56.70
2018-02-20T18:46:27.830Z,57.30
2018-02-20T18:48:56.021Z,57.40
2018-02-20T18:51:23.449Z,57.30
2018-02-20T18:53:51.641Z,57.90
2018-02-20T18:56:19.073Z,57.90
2018-02-20T18:58:47.294Z,58.30
2018-02-20T19:01:14.732Z,58.00
2018-02-20T19:03:42.153Z,58.40
2018-02-20T19:06:09.907Z,58.80
2018-02-20T19:08:37.334Z,58.70
2018-02-20T19:11:04.756Z,59.00
2018-02-20T19:13:32.945Z,59.30
2018-02-20T19:16:00.374Z,59.80
2018-02-20T19:18:28.574Z,59.60
2018-02-20T19:20:56.001Z,59.60
2018-02-20T19:23:23.421Z,59.80
2018-02-20T19:25:50.854Z,59.80
2018-02-20T19:28:18.278Z,60.30
2018-02-20T19:30:45.721Z,60.10
2018-02-20T19:33:13.152Z,60.20
2018-02-20T19:35:40.598Z,60.60
2018-02-20T19:38:08.023Z,61.00
2018-02-20T19:40:35.452Z,62.00
2018-02-20T19:43:02.914Z,62.30
2018-02-20T19:45:30.346Z,62.60
2018-02-20T19:47:57.777Z,63.50
2018-02-20T19:50:25.203Z,62.80
2018-02-20T19:52:53.389Z,62.70
2018-02-20T19:55:20.822Z,62.60
2018-02-20T19:57:48.353Z,63.20
2018-02-20T20:00:15.888Z,63.10
2018-02-20T20:02:43.302Z,63.10
2018-02-20T20:05:11.522Z,64.30
2018-02-20T20:07:38.953Z,64.20
2018-02-20T20:10:06.380Z,64.10
2018-02-20T20:12:33.809Z,65.10
2018-02-20T20:15:01.254Z,65.70
2018-02-20T20:17:28.997Z,66.20
2018-02-20T20:19:56.425Z,66.60
2018-02-20T20:22:24.628Z,66.60
2018-02-20T20:24:52.047Z,66.60
2018-02-20T20:27:19.482Z,66.70
2018-02-20T20:29:46.923Z,67.70
2018-02-20T20:32:14.373Z,66.90
2018-02-20T20:34:41.791Z,67.00
2018-02-20T20:37:10.829Z,67.30
2018-02-20T20:39:38.260Z,67.30
2018-02-20T20:42:05.714Z,67.30
2018-02-20T20:44:33.929Z,68.70
2018-02-20T20:47:01.369Z,68.60
2018-02-20T20:49:28.834Z,69.30
2018-02-20T20:51:56.286Z,69.40
2018-02-20T20:54:23.808Z,69.90
2018-02-20T20:56:52.001Z,70.00
2018-02-20T20:59:19.455Z,70.00
2018-02-20T21:01:47.665Z,70.40
2018-02-20T21:04:15.089Z,70.40
2018-02-20T21:06:42.508Z,70.10
2018-02-20T21:09:10.169Z,70.80
2018-02-20T21:11:37.603Z,70.70
2018-02-20T21:14:05.033Z,70.30
2018-02-20T21:16:32.460Z,70.40
2018-02-20T21:19:00.678Z,71.40
2018-02-20T21:21:28.156Z,71.30
2018-02-20T21:23:55.531Z,71.50
2018-02-20T21:26:22.972Z,71.40
2018-02-20T21:28:50.404Z,71.60
2018-02-20T21:31:17.866Z,71.90
2018-02-20T21:33:45.309Z,72.40
2018-02-20T21:36:12.761Z,72.70
2018-02-20T21:38:41.084Z,72.80
2018-02-20T21:41:08.618Z,73.00
2018-02-20T21:43:36.038Z,73.00
2018-02-20T21:46:04.242Z,73.60
2018-02-20T21:48:31.670Z,73.50
2018-02-20T21:50:59.892Z,73.50
2018-02-20T21:53:27.335Z,73.50
2018-02-20T21:55:54.765Z,73.90
2018-02-20T21:58:23.008Z,73.80
2018-02-20T22:00:50.442Z,73.80
2018-02-20T22:03:17.879Z,73.80
2018-02-20T22:05:45.314Z,74.80
2018-02-20T22:08:13.496Z,74.70
2018-02-20T22:10:40.936Z,74.70
2018-02-20T22:13:09.125Z,74.60
2018-02-20T22:15:36.546Z,74.50
2018-02-20T22:18:03.979Z,74.40
2018-02-20T22:20:31.421Z,74.80
2018-02-20T22:22:58.840Z,74.80
2018-02-20T22:25:27.024Z,75.00
2018-02-20T22:27:54.457Z,74.80
2018-02-20T22:30:21.880Z,75.30
2018-02-20T22:32:49.341Z,76.10
2018-02-20T22:35:16.786Z,76.00
2018-02-20T22:37:44.219Z,75.80
2018-02-20T22:40:11.638Z,75.50
2018-02-20T22:42:39.100Z,75.70
2018-02-20T22:45:06.529Z,75.40
2018-02-20T22:47:33.959Z,75.20
2018-02-20T22:50:01.417Z,75.20
2018-02-20T22:52:28.845Z,74.90
2018-02-20T22:54:57.053Z,76.10
2018-02-20T22:57:24.473Z,76.00
2018-02-20T22:59:52.665Z,76.40
2018-02-20T23:02:20.106Z,76.20
2018-02-20T23:04:48.566Z,76.80
2018-02-20T23:07:16.010Z,76.70
2018-02-20T23:09:43.443Z,76.60
2018-02-20T23:12:10.866Z,76.50
2018-02-20T23:14:39.097Z,76.40
2018-02-20T23:17:06.533Z,76.40
2018-02-20T23:19:34.529Z,76.60
2018-02-20T23:22:01.956Z,76.10
2018-02-20T23:24:29.386Z,75.90
2018-02-20T23:26:57.602Z,76.30
2018-02-20T23:29:25.031Z,76.30
2018-02-20T23:31:52.478Z,77.00
2018-02-20T23:34:20.694Z,77.00
2018-02-20T23:36:48.121Z,76.90
2018-02-20T23:39:15.550Z,77.20
2018-02-20T23:41:43.746Z,76.40
2018-02-20T23:44:11.224Z,76.40
2018-02-20T23:46:38.649Z,76.30
2018-02-20T23:49:06.856Z,75.80
2018-02-20T23:51:35.036Z,75.80
2018-02-20T23:54:02.484Z,75.40
2018-02-20T23:56:29.900Z,75.70
2018-02-20T23:58:57.371Z,75.80
